Time;durP1;ratioP1;P1;durP2;ratioP2;P2;SDS_P1;SDS_P2;PMS_P1;PMS_P2;Temp;Humidity;BMP_temperature;BMP_pressure;BME280_temperature;BME280_humidity;BME280_pressure;Samples;Min_cycle;Max_cycle;Signal;HPM_P1;HPM_P2
2022/03/29 00:00:10;;;;;;;;;;;;;;;6.07;100.00;98185.97;10376509;28;19991;-76
2022/03/29 00:05:14;;;;;;;;;;;;;;;6.04;100.00;98184.72;10366152;28;19929;-78
2022/03/29 00:10:19;;;;;;;;;;;;;;;5.94;100.00;98176.88;10374119;28;19929;-79
2022/03/29 00:15:21;;;;;;;;;;;;;;;5.91;100.00;98170.28;10372759;28;19936;-77
2022/03/29 00:20:29;;;;;;;;;;;;;;;5.90;100.00;98160.72;10378865;28;19940;-78
2022/03/29 00:25:34;;;;;;;;;;;;;;;5.89;100.00;98158.31;10352509;28;20300;-78
2022/03/29 00:30:38;;;;;;;;;;;;;;;5.86;100.00;98162.38;10396169;28;19945;-79
2022/03/29 00:35:42;;;;;;;;;;;;;;;5.82;100.00;98147.25;10359019;28;19948;-79
2022/03/29 00:40:47;;;;;;;;;;;;;;;5.66;100.00;98144.84;10389064;28;19944;-81
2022/03/29 00:45:54;;;;;;;;;;;;;;;5.64;100.00;98144.38;10380521;28;20678;-79
2022/03/29 00:50:56;;;;;;;;;;;;;;;5.62;100.00;98132.44;10377379;28;19939;-78
2022/03/29 00:55:59;;;;;;;;;;;;;;;5.59;100.00;98135.69;10362787;28;19947;-78
2022/03/29 01:01:02;;;;;;;;;;;;;;;5.52;100.00;98129.97;10364149;28;20378;-78
2022/03/29 01:06:04;;;;;;;;;;;;;;;5.49;100.00;98134.00;10381977;28;19940;-78
2022/03/29 01:11:10;;;;;;;;;;;;;;;5.56;100.00;98128.28;10338642;28;19929;-78
2022/03/29 01:21:35;;;;;;;;;;;;;;;5.46;100.00;98112.50;10381317;28;19973;-76
2022/03/29 01:26:42;;;;;;;;;;;;;;;5.43;100.00;98106.69;10362842;28;20422;-76
2022/03/29 01:31:42;;;;;;;;;;;;;;;5.49;100.00;98093.28;10404680;28;19925;-77
2022/03/29 01:36:46;;;;;;;;;;;;;;;5.49;100.00;98093.28;10392216;28;19931;-77
2022/03/29 01:41:48;;;;;;;;;;;;;;;5.33;100.00;98085.56;10408548;28;20309;-78
2022/03/29 01:46:50;;;;;;;;;;;;;;;5.25;100.00;98083.56;10397904;28;19919;-77
2022/03/29 01:51:51;;;;;;;;;;;;;;;5.13;100.00;98067.31;10379868;28;19965;-78
2022/03/29 01:56:52;;;;;;;;;;;;;;;5.13;100.00;98064.63;10381711;28;19933;-79
2022/03/29 02:01:52;;;;;;;;;;;;;;;5.10;100.00;98062.53;10392520;28;19992;-77
2022/03/29 02:06:56;;;;;;;;;;;;;;;5.09;100.00;98056.44;10397424;28;19936;-78
2022/03/29 02:12:01;;;;;;;;;;;;;;;5.01;100.00;98049.13;10376611;28;19925;-78
2022/03/29 02:17:06;;;;;;;;;;;;;;;4.94;100.00;98045.25;10408748;28;19929;-79
2022/03/29 02:22:09;;;;;;;;;;;;;;;4.95;100.00;98049.53;10393226;28;20009;-80
2022/03/29 02:27:10;;;;;;;;;;;;;;;4.91;100.00;98030.69;10378878;28;19961;-76
2022/03/29 02:32:10;;;;;;;;;;;;;;;4.99;100.00;98021.25;10368339;28;19941;-78
2022/03/29 02:37:43;;;;;;;;;;;;;;;4.95;100.00;98007.75;10393113;28;19937;-77
2022/03/29 02:42:45;;;;;;;;;;;;;;;4.87;100.00;98010.31;10371109;28;19940;-76
2022/03/29 02:47:47;;;;;;;;;;;;;;;4.81;100.00;98002.41;10399785;28;19933;-76
2022/03/29 02:52:48;;;;;;;;;;;;;;;4.75;100.00;98003.56;10393084;28;19952;-76
2022/03/29 02:57:49;;;;;;;;;;;;;;;4.69;100.00;98006.59;10428832;28;19933;-77
2022/03/29 03:02:53;;;;;;;;;;;;;;;4.64;100.00;97998.69;10394367;28;19936;-76
2022/03/29 03:07:55;;;;;;;;;;;;;;;4.57;100.00;97991.91;10387671;28;19936;-76
2022/03/29 03:12:55;;;;;;;;;;;;;;;4.55;100.00;97996.69;10404771;28;20043;-77
2022/03/29 03:17:58;;;;;;;;;;;;;;;4.54;100.00;97995.13;10412446;28;19940;-76
2022/03/29 03:22:58;;;;;;;;;;;;;;;4.54;100.00;97989.81;10409896;28;19939;-78
2022/03/29 03:27:59;;;;;;;;;;;;;;;4.46;100.00;97992.34;10389011;28;19935;-77
2022/03/29 03:32:59;;;;;;;;;;;;;;;4.33;100.00;97993.09;10425367;28;19933;-77
2022/03/29 03:38:05;;;;;;;;;;;;;;;4.16;100.00;97996.25;10396993;28;19940;-79
2022/03/29 03:43:14;;;;;;;;;;;;;;;4.11;100.00;97986.47;10370066;28;20019;-78
2022/03/29 03:48:20;;;;;;;;;;;;;;;4.11;100.00;97986.47;10389649;28;20407;-78
2022/03/29 03:53:29;;;;;;;;;;;;;;;4.12;100.00;97981.97;10375796;28;19957;-79
2022/03/29 03:58:29;;;;;;;;;;;;;;;4.11;100.00;97981.16;10401589;28;20019;-78
2022/03/29 04:03:31;;;;;;;;;;;;;;;4.13;100.00;97981.69;10431144;28;19929;-80
2022/03/29 04:08:31;;;;;;;;;;;;;;;4.07;100.00;97985.47;10413274;28;19929;-78
2022/03/29 04:13:36;;;;;;;;;;;;;;;4.05;100.00;97978.88;10416877;28;19929;-78
2022/03/29 04:18:38;;;;;;;;;;;;;;;3.90;100.00;97977.22;10389286;28;20373;-79
2022/03/29 04:23:43;;;;;;;;;;;;;;;3.87;100.00;97973.28;10358799;28;22126;-79
2022/03/29 04:28:43;;;;;;;;;;;;;;;3.74;100.00;97967.88;10358149;28;19929;-78
2022/03/29 04:33:52;;;;;;;;;;;;;;;3.63;100.00;97960.06;10406537;28;19913;-80
2022/03/29 04:38:54;;;;;;;;;;;;;;;3.58;100.00;97968.09;10405582;28;20372;-78
2022/03/29 04:43:54;;;;;;;;;;;;;;;3.50;100.00;97962.63;10373241;28;19929;-79
2022/03/29 04:48:55;;;;;;;;;;;;;;;3.42;100.00;97961.38;10391039;28;19952;-81
2022/03/29 04:54:01;;;;;;;;;;;;;;;3.36;100.00;97963.28;10381302;28;19967;-78
2022/03/29 04:59:01;;;;;;;;;;;;;;;3.34;100.00;97959.34;10385400;28;19964;-78
2022/03/29 05:04:12;;;;;;;;;;;;;;;3.29;100.00;97954.09;10393341;28;20085;-78
2022/03/29 05:09:13;;;;;;;;;;;;;;;3.32;100.00;97961.50;10400461;28;19932;-79
2022/03/29 05:14:15;;;;;;;;;;;;;;;3.43;100.00;97952.34;10369954;28;19929;-79
2022/03/29 05:19:17;;;;;;;;;;;;;;;3.35;100.00;97951.09;10434288;28;19932;-78
2022/03/29 05:24:17;;;;;;;;;;;;;;;3.32;100.00;97950.91;10382557;28;20008;-78
2022/03/29 05:29:21;;;;;;;;;;;;;;;3.37;100.00;97945.50;10382761;28;19929;-80
2022/03/29 05:34:22;;;;;;;;;;;;;;;3.38;100.00;97955.06;10364972;28;19929;-78
2022/03/29 05:39:23;;;;;;;;;;;;;;;3.49;100.00;97953.09;10379353;28;20006;-78
2022/03/29 05:44:23;;;;;;;;;;;;;;;3.57;100.00;97944.50;10384844;28;19991;-78
2022/03/29 05:49:28;;;;;;;;;;;;;;;3.75;100.00;97945.56;10388954;28;19929;-79
2022/03/29 05:54:30;;;;;;;;;;;;;;;4.09;100.00;97942.69;10382307;28;19925;-78
2022/03/29 05:59:30;;;;;;;;;;;;;;;4.14;100.00;97938.09;10372093;28;19925;-77
2022/03/29 06:04:31;;;;;;;;;;;;;;;4.41;100.00;97941.94;10409767;28;19930;-78
2022/03/29 06:09:32;;;;;;;;;;;;;;;4.58;100.00;97936.88;10393210;28;19929;-75
2022/03/29 06:14:32;;;;;;;;;;;;;;;4.90;100.00;97935.25;10408473;28;19929;-78
2022/03/29 06:19:34;;;;;;;;;;;;;;;5.07;100.00;97933.59;10374143;28;19929;-77
2022/03/29 06:24:34;;;;;;;;;;;;;;;5.46;100.00;97950.13;10374481;28;19952;-76
2022/03/29 06:29:34;;;;;;;;;;;;;;;5.66;100.00;97939.06;10375002;28;19937;-76
2022/03/29 06:34:36;;;;;;;;;;;;;;;5.92;100.00;97942.78;10387479;28;19992;-77
2022/03/29 06:39:36;;;;;;;;;;;;;;;6.38;100.00;97936.41;10435025;28;19909;-77
2022/03/29 06:44:39;;;;;;;;;;;;;;;6.53;100.00;97948.56;10419199;28;20692;-76
2022/03/29 06:49:39;;;;;;;;;;;;;;;6.73;100.00;97936.63;10432075;28;20017;-77
2022/03/29 06:54:39;;;;;;;;;;;;;;;6.62;100.00;97929.97;10394473;28;19996;-78
2022/03/29 06:59:40;;;;;;;;;;;;;;;6.71;100.00;97928.91;10384439;28;20007;-76
2022/03/29 07:04:40;;;;;;;;;;;;;;;7.08;100.00;97929.56;10402039;28;19929;-76
2022/03/29 07:15:00;;;;;;;;;;;;;;;7.54;100.00;97929.06;10387729;28;20051;-76
2022/03/29 07:20:01;;;;;;;;;;;;;;;7.84;100.00;97924.72;10397035;28;20028;-76
2022/03/29 07:25:02;;;;;;;;;;;;;;;8.25;100.00;97926.16;10375410;28;19975;-77
2022/03/29 07:30:04;;;;;;;;;;;;;;;7.99;100.00;97926.16;10393423;28;20328;-77
2022/03/29 07:35:04;;;;;;;;;;;;;;;8.18;100.00;97937.31;10382858;28;19929;-76
2022/03/29 07:40:05;;;;;;;;;;;;;;;8.47;100.00;97927.88;10393710;28;19930;-76
2022/03/29 07:45:07;;;;;;;;;;;;;;;8.82;100.00;97923.22;10400044;28;20012;-75
2022/03/29 07:50:08;;;;;;;;;;;;;;;8.64;100.00;97922.50;10411817;28;19925;-77
2022/03/29 07:55:10;;;;;;;;;;;;;;;8.94;100.00;97925.22;10409606;28;19955;-77
2022/03/29 08:05:31;;;;;;;;;;;;;;;9.57;99.26;97915.47;10421766;28;19937;-77
2022/03/29 08:10:32;;;;;;;;;;;;;;;10.20;97.54;97921.63;10378794;28;19939;-78
2022/03/29 08:15:34;;;;;;;;;;;;;;;10.44;95.26;97916.41;10390533;28;19929;-77
2022/03/29 08:20:35;;;;;;;;;;;;;;;10.56;91.32;97914.88;10375699;28;19929;-75
2022/03/29 08:25:36;;;;;;;;;;;;;;;10.67;95.90;97916.78;10398053;28;20300;-76
2022/03/29 08:30:37;;;;;;;;;;;;;;;10.99;89.46;97914.41;10406719;28;19929;-76
2022/03/29 08:35:38;;;;;;;;;;;;;;;11.05;88.42;97913.06;10403946;28;19929;-76
2022/03/29 08:40:40;;;;;;;;;;;;;;;11.15;90.67;97906.47;10402391;28;19929;-78
2022/03/29 08:45:46;;;;;;;;;;;;;;;10.95;84.56;97913.50;10362168;28;19937;-78
2022/03/29 08:50:47;;;;;;;;;;;;;;;11.81;83.33;97906.22;10393496;28;19968;-77
2022/03/29 08:55:48;;;;;;;;;;;;;;;11.72;81.02;97906.31;10387011;28;19933;-76
2022/03/29 09:00:51;;;;;;;;;;;;;;;11.50;82.99;97899.50;10379534;28;19932;-75
2022/03/29 09:06:08;;;;;;;;;;;;;;;11.72;79.36;97900.94;10381535;28;19929;-75
2022/03/29 09:11:08;;;;;;;;;;;;;;;11.75;78.35;97899.47;10380522;28;19936;-75
2022/03/29 09:16:26;;;;;;;;;;;;;;;11.99;80.36;97896.00;10400165;28;19991;-77
2022/03/29 09:21:28;;;;;;;;;;;;;;;12.77;77.68;97890.78;10410774;28;19933;-77
2022/03/29 09:26:32;;;;;;;;;;;;;;;13.23;70.38;97885.75;10386781;28;19925;-76
2022/03/29 09:31:34;;;;;;;;;;;;;;;13.04;67.63;97875.66;10396600;28;19914;-76
2022/03/29 09:36:40;;;;;;;;;;;;;;;12.98;67.89;97865.50;10421784;28;20016;-76
2022/03/29 09:41:42;;;;;;;;;;;;;;;12.96;71.45;97865.06;10448251;28;19937;-76
2022/03/29 09:46:56;;;;;;;;;;;;;;;13.49;65.69;97866.34;10396101;28;19932;-76
2022/03/29 09:52:14;;;;;;;;;;;;;;;13.55;67.29;97864.94;10374864;28;19929;-76
2022/03/29 09:57:15;;;;;;;;;;;;;;;13.44;67.55;97860.41;10386115;28;19936;-78
2022/03/29 10:02:15;;;;;;;;;;;;;;;13.46;64.22;97856.25;10404659;28;20242;-76
2022/03/29 10:07:16;;;;;;;;;;;;;;;14.03;63.81;97852.06;10431784;28;19940;-75
2022/03/29 10:12:19;;;;;;;;;;;;;;;14.58;58.69;97844.63;10399210;28;20669;-75
2022/03/29 10:17:20;;;;;;;;;;;;;;;15.23;57.05;97830.97;10382747;28;19981;-77
2022/03/29 10:22:22;;;;;;;;;;;;;;;15.19;61.29;97821.28;10379462;28;19939;-76
2022/03/29 10:27:22;;;;;;;;;;;;;;;15.44;58.18;97818.91;10386683;28;19935;-75
2022/03/29 10:32:29;;;;;;;;;;;;;;;16.17;60.43;97817.50;10394228;28;20032;-77
2022/03/29 10:37:32;;;;;;;;;;;;;;;15.47;61.72;97808.16;10407091;28;19932;-76
2022/03/29 10:42:40;;;;;;;;;;;;;;;15.51;70.77;97806.25;10394817;28;19956;-76
2022/03/29 10:47:42;;;;;;;;;;;;;;;16.02;66.16;97796.84;10410834;28;19979;-75
2022/03/29 10:52:46;;;;;;;;;;;;;;;16.59;65.93;97792.00;10399423;28;20036;-76
2022/03/29 10:58:06;;;;;;;;;;;;;;;16.92;62.43;97783.78;10389602;28;19992;-76
2022/03/29 11:03:06;;;;;;;;;;;;;;;17.71;60.51;97779.56;10376219;28;20372;-75
2022/03/29 11:08:10;;;;;;;;;;;;;;;16.96;61.19;97772.94;10402644;28;19936;-75
2022/03/29 11:13:27;;;;;;;;;;;;;;;16.94;60.62;97764.41;10389775;28;19913;-75
2022/03/29 11:18:30;;;;;;;;;;;;;;;18.03;58.85;97759.91;10387085;28;19929;-76
2022/03/29 11:23:38;;;;;;;;;;;;;;;17.46;52.59;97751.53;10415167;28;19930;-77
2022/03/29 11:28:49;;;;;;;;;;;;;;;18.38;50.31;97743.66;10382177;28;19925;-77
2022/03/29 11:33:52;;;;;;;;;;;;;;;17.37;55.39;97742.94;10377944;28;19939;-75
2022/03/29 11:38:52;;;;;;;;;;;;;;;16.99;60.35;97731.50;10396856;28;19975;-76
2022/03/29 11:43:54;;;;;;;;;;;;;;;17.87;57.64;97725.72;10404001;28;19930;-75
2022/03/29 11:48:56;;;;;;;;;;;;;;;17.25;56.61;97727.78;10393154;28;19929;-76
2022/03/29 11:53:56;;;;;;;;;;;;;;;17.99;51.08;97721.88;10400728;28;19955;-76
2022/03/29 11:58:57;;;;;;;;;;;;;;;18.06;51.68;97713.75;10395481;28;19952;-78
2022/03/29 12:03:59;;;;;;;;;;;;;;;17.97;50.51;97709.84;10385828;28;19933;-76
2022/03/29 12:09:04;;;;;;;;;;;;;;;18.35;49.07;97706.38;10381175;28;19929;-77
2022/03/29 12:14:09;;;;;;;;;;;;;;;18.48;48.89;97698.66;10389633;28;19929;-76
2022/03/29 12:19:11;;;;;;;;;;;;;;;18.27;49.12;97693.19;10391441;28;20043;-76
2022/03/29 12:24:12;;;;;;;;;;;;;;;18.35;50.34;97690.09;10385255;28;20363;-77
2022/03/29 12:29:13;;;;;;;;;;;;;;;17.08;52.83;97680.44;10400673;28;19936;-76
2022/03/29 12:34:15;;;;;;;;;;;;;;;16.88;53.66;97671.03;10357860;28;20063;-76
2022/03/29 12:39:17;;;;;;;;;;;;;;;17.19;53.20;97666.94;10392312;28;20019;-80
2022/03/29 12:44:28;;;;;;;;;;;;;;;17.49;53.98;97653.09;10387654;28;19930;-76
2022/03/29 12:49:29;;;;;;;;;;;;;;;17.32;56.50;97647.22;10361184;28;20250;-77
2022/03/29 12:54:33;;;;;;;;;;;;;;;17.61;55.11;97639.94;10403938;28;19929;-77
2022/03/29 12:59:37;;;;;;;;;;;;;;;18.24;56.07;97634.22;10411144;28;20308;-77
2022/03/29 13:04:41;;;;;;;;;;;;;;;18.37;52.87;97625.25;10363710;28;19926;-77
2022/03/29 13:09:56;;;;;;;;;;;;;;;17.85;55.82;97622.19;10376247;28;19937;-77
2022/03/29 13:14:56;;;;;;;;;;;;;;;18.85;53.46;97608.50;10370562;28;19928;-78
2022/03/29 13:19:57;;;;;;;;;;;;;;;18.62;50.36;97606.19;10412543;28;19979;-77
2022/03/29 13:24:59;;;;;;;;;;;;;;;19.45;47.66;97604.72;10407524;28;19933;-77
2022/03/29 13:29:59;;;;;;;;;;;;;;;18.93;48.11;97585.56;10390346;28;19930;-78
2022/03/29 13:35:00;;;;;;;;;;;;;;;19.49;48.07;97580.22;10384763;28;19929;-82
2022/03/29 13:40:02;;;;;;;;;;;;;;;19.10;48.79;97570.31;10376504;28;20066;-80
2022/03/29 13:45:03;;;;;;;;;;;;;;;18.75;48.50;97566.59;10370560;28;20005;-80
2022/03/29 13:50:05;;;;;;;;;;;;;;;18.99;50.41;97559.50;10378266;28;20019;-78
2022/03/29 13:55:07;;;;;;;;;;;;;;;18.65;49.10;97553.81;10376142;28;20407;-80
2022/03/29 14:00:08;;;;;;;;;;;;;;;18.80;50.75;97543.66;10361594;28;19953;-77
2022/03/29 14:05:12;;;;;;;;;;;;;;;18.66;49.72;97541.00;10401275;28;19933;-76
2022/03/29 14:10:14;;;;;;;;;;;;;;;19.26;48.07;97534.47;10350659;28;19936;-79
2022/03/29 14:15:16;;;;;;;;;;;;;;;18.72;44.76;97523.09;10395045;28;19933;-77
2022/03/29 14:20:16;;;;;;;;;;;;;;;18.89;43.58;97513.31;10391221;28;19955;-77
2022/03/29 14:25:17;;;;;;;;;;;;;;;19.13;43.32;97508.91;10411822;28;19961;-79
2022/03/29 14:30:18;;;;;;;;;;;;;;;18.92;42.70;97504.34;10429786;28;19972;-79
2022/03/29 14:35:22;;;;;;;;;;;;;;;18.55;43.78;97499.44;10418355;28;19930;-78
2022/03/29 14:40:24;;;;;;;;;;;;;;;18.69;43.12;97491.28;10398984;28;20307;-77
2022/03/29 14:45:26;;;;;;;;;;;;;;;18.09;41.57;97486.78;10401255;28;19924;-78
2022/03/29 14:50:29;;;;;;;;;;;;;;;17.71;41.86;97481.03;10373204;28;19932;-79
2022/03/29 14:55:35;;;;;;;;;;;;;;;17.06;43.20;97485.63;10392894;28;19929;-79
2022/03/29 15:00:46;;;;;;;;;;;;;;;17.17;44.82;97487.56;10415783;28;19936;-78
2022/03/29 15:05:48;;;;;;;;;;;;;;;16.96;45.04;97491.03;10435392;28;19965;-79
2022/03/29 15:10:51;;;;;;;;;;;;;;;16.55;46.04;97493.97;10437616;28;19921;-79
2022/03/29 15:15:54;;;;;;;;;;;;;;;16.19;48.53;97476.78;10425706;28;19949;-77
2022/03/29 15:20:55;;;;;;;;;;;;;;;16.39;48.31;97474.56;10388984;28;19925;-77
2022/03/29 15:25:56;;;;;;;;;;;;;;;16.03;50.92;97466.25;10417832;28;19971;-77
2022/03/29 15:31:02;;;;;;;;;;;;;;;16.10;52.26;97455.47;10407239;28;19925;-78
2022/03/29 15:36:09;;;;;;;;;;;;;;;15.72;52.90;97454.06;10416990;28;19992;-79
2022/03/29 15:41:13;;;;;;;;;;;;;;;15.66;54.27;97471.81;10407623;28;19994;-78
2022/03/29 15:46:15;;;;;;;;;;;;;;;15.43;58.29;97460.38;10389271;28;20015;-77
2022/03/29 15:51:16;;;;;;;;;;;;;;;15.43;60.07;97457.69;10408373;28;20380;-77
2022/03/29 15:56:17;;;;;;;;;;;;;;;15.21;64.10;97435.13;10406862;28;19925;-77
2022/03/29 16:01:17;;;;;;;;;;;;;;;15.29;63.96;97434.03;10387002;28;19936;-76
2022/03/29 16:06:25;;;;;;;;;;;;;;;15.16;61.04;97433.50;10417753;28;19925;-78
2022/03/29 16:11:26;;;;;;;;;;;;;;;15.18;61.77;97422.31;10406223;28;19920;-78
2022/03/29 16:16:26;;;;;;;;;;;;;;;15.04;64.30;97421.06;10396807;28;20020;-77
2022/03/29 16:21:27;;;;;;;;;;;;;;;15.15;60.61;97425.78;10393015;28;19929;-78
2022/03/29 16:26:27;;;;;;;;;;;;;;;15.17;62.53;97423.47;10381773;28;20001;-80
2022/03/29 16:31:28;;;;;;;;;;;;;;;15.13;60.33;97430.78;10397799;28;19933;-76
2022/03/29 16:36:28;;;;;;;;;;;;;;;14.85;59.09;97423.97;10420014;28;19936;-78
2022/03/29 16:41:31;;;;;;;;;;;;;;;14.75;58.16;97425.44;10437440;28;19913;-76
2022/03/29 16:46:32;;;;;;;;;;;;;;;14.82;57.63;97429.38;10412594;28;19948;-75
2022/03/29 16:51:33;;;;;;;;;;;;;;;14.79;57.44;97423.53;10401702;28;19961;-75
2022/03/29 16:56:33;;;;;;;;;;;;;;;14.75;57.96;97421.97;10423441;28;19929;-75
2022/03/29 17:01:34;;;;;;;;;;;;;;;14.67;58.10;97425.72;10422032;28;20021;-77
2022/03/29 17:06:38;;;;;;;;;;;;;;;14.51;60.31;97424.00;10399935;28;19929;-76
2022/03/29 17:11:39;;;;;;;;;;;;;;;14.37;66.60;97413.03;10392349;28;19930;-76
2022/03/29 17:16:40;;;;;;;;;;;;;;;14.29;66.55;97402.53;10398215;28;19999;-76
2022/03/29 17:21:41;;;;;;;;;;;;;;;14.20;62.53;97398.19;10380611;28;19926;-76
2022/03/29 17:26:42;;;;;;;;;;;;;;;14.13;60.18;97408.91;10370445;28;19929;-77
2022/03/29 17:31:44;;;;;;;;;;;;;;;14.09;57.95;97401.91;10402967;28;20019;-76
2022/03/29 17:36:44;;;;;;;;;;;;;;;14.17;58.70;97401.63;10390605;28;20011;-77
2022/03/29 17:41:45;;;;;;;;;;;;;;;14.12;56.94;97403.88;10413411;28;19987;-76
2022/03/29 17:46:45;;;;;;;;;;;;;;;13.95;60.32;97418.69;10416687;28;19929;-76
2022/03/29 17:51:46;;;;;;;;;;;;;;;13.82;64.47;97423.53;10416545;28;19957;-76
2022/03/29 17:56:47;;;;;;;;;;;;;;;13.92;65.66;97406.72;10414314;28;21057;-76
2022/03/29 18:01:50;;;;;;;;;;;;;;;13.57;68.52;97414.31;10383835;28;19929;-76
2022/03/29 18:06:50;;;;;;;;;;;;;;;13.46;69.37;97406.06;10412984;28;19933;-78
2022/03/29 18:11:51;;;;;;;;;;;;;;;13.38;64.18;97407.09;10378909;28;19933;-77
2022/03/29 18:16:52;;;;;;;;;;;;;;;13.19;63.33;97401.78;10418474;28;19929;-76
2022/03/29 18:21:53;;;;;;;;;;;;;;;13.12;63.54;97397.03;10410924;28;19984;-76
2022/03/29 18:26:54;;;;;;;;;;;;;;;13.05;63.08;97399.63;10402022;28;20019;-77
2022/03/29 18:31:56;;;;;;;;;;;;;;;13.08;63.41;97401.59;10421285;28;19925;-78
2022/03/29 18:36:58;;;;;;;;;;;;;;;12.94;63.79;97401.34;10409876;28;19932;-76
2022/03/29 18:41:58;;;;;;;;;;;;;;;12.80;62.85;97402.69;10411893;28;19929;-74
2022/03/29 18:46:58;;;;;;;;;;;;;;;12.74;63.75;97393.34;10406860;28;20141;-76
2022/03/29 18:51:59;;;;;;;;;;;;;;;12.62;67.38;97400.78;10394658;28;19999;-77
2022/03/29 18:57:00;;;;;;;;;;;;;;;12.47;66.72;97392.47;10401697;28;19960;-76
2022/03/29 19:02:02;;;;;;;;;;;;;;;12.51;66.12;97403.28;10391920;28;19947;-78
2022/03/29 19:07:05;;;;;;;;;;;;;;;12.53;63.97;97398.34;10374089;28;19925;-75
2022/03/29 19:12:07;;;;;;;;;;;;;;;12.47;64.08;97395.16;10393146;28;19936;-77
2022/03/29 19:17:08;;;;;;;;;;;;;;;12.39;66.45;97409.63;10402656;28;20426;-76
2022/03/29 19:22:08;;;;;;;;;;;;;;;12.28;67.38;97407.88;10390676;28;20099;-77
2022/03/29 19:27:14;;;;;;;;;;;;;;;12.24;67.96;97410.47;10394848;28;19929;-77
2022/03/29 19:32:15;;;;;;;;;;;;;;;12.12;69.57;97402.53;10436106;28;20020;-76
2022/03/29 19:37:15;;;;;;;;;;;;;;;12.13;68.43;97399.50;10405177;28;20340;-79
2022/03/29 19:42:25;;;;;;;;;;;;;;;12.14;69.76;97401.06;10404306;28;19969;-79
2022/03/29 19:47:31;;;;;;;;;;;;;;;12.02;71.04;97393.13;10399705;28;19959;-76
2022/03/29 19:52:32;;;;;;;;;;;;;;;11.98;73.25;97394.97;10390210;28;20383;-77
2022/03/29 19:57:33;;;;;;;;;;;;;;;11.99;72.06;97398.44;10381930;28;20019;-78
2022/03/29 20:02:37;;;;;;;;;;;;;;;12.02;72.29;97395.81;10384075;28;19928;-77
2022/03/29 20:07:39;;;;;;;;;;;;;;;12.06;72.04;97390.50;10369540;28;19937;-79
2022/03/29 20:12:40;;;;;;;;;;;;;;;11.99;73.01;97388.47;10386771;28;20007;-80
2022/03/29 20:17:42;;;;;;;;;;;;;;;11.97;73.91;97385.34;10377427;28;19995;-77
2022/03/29 20:22:45;;;;;;;;;;;;;;;11.96;74.43;97392.63;10405578;28;20029;-76
2022/03/29 20:27:49;;;;;;;;;;;;;;;11.94;75.15;97383.34;10395289;28;19925;-79
2022/03/29 20:32:49;;;;;;;;;;;;;;;11.92;75.74;97372.97;10391087;28;19934;-75
2022/03/29 20:37:52;;;;;;;;;;;;;;;11.92;76.15;97372.97;10414396;28;19925;-76
2022/03/29 20:42:54;;;;;;;;;;;;;;;11.84;77.05;97363.19;10397025;28;19944;-77
2022/03/29 20:47:59;;;;;;;;;;;;;;;11.73;80.83;97358.69;10396722;28;19965;-78
2022/03/29 20:53:10;;;;;;;;;;;;;;;11.62;87.03;97359.25;10356108;28;19959;-76
2022/03/29 20:58:14;;;;;;;;;;;;;;;11.52;92.83;97364.38;10605022;22;19924;-77
2022/03/29 21:03:18;;;;;;;;;;;;;;;11.44;88.66;97365.38;10528135;28;19932;-76
2022/03/29 21:08:23;;;;;;;;;;;;;;;11.40;88.64;97359.91;10500149;28;19958;-78
2022/03/29 21:13:23;;;;;;;;;;;;;;;11.36;91.51;97357.16;10509788;28;19978;-76
2022/03/29 21:18:24;;;;;;;;;;;;;;;11.32;90.54;97356.28;10510579;28;20313;-76
2022/03/29 21:28:46;;;;;;;;;;;;;;;11.07;100.00;97357.66;10398660;28;19938;-75
2022/03/29 21:33:47;;;;;;;;;;;;;;;11.01;100.00;97354.44;10406792;28;19929;-77
2022/03/29 21:38:47;;;;;;;;;;;;;;;10.95;99.78;97355.81;10383350;28;19936;-75
2022/03/29 21:43:47;;;;;;;;;;;;;;;10.85;100.00;97350.97;10400623;28;19936;-75
2022/03/29 21:48:48;;;;;;;;;;;;;;;10.79;99.78;97353.16;10390229;28;19952;-76
2022/03/29 21:53:48;;;;;;;;;;;;;;;10.86;99.13;97352.53;10399062;28;19936;-77
2022/03/29 21:59:07;;;;;;;;;;;;;;;10.81;100.00;97358.94;10390691;28;19976;-75
2022/03/29 22:04:26;;;;;;;;;;;;;;;10.77;98.90;97371.47;10422526;28;19972;-75
2022/03/29 22:09:46;;;;;;;;;;;;;;;10.68;100.00;97383.50;10394455;28;20312;-75
2022/03/29 22:14:46;;;;;;;;;;;;;;;10.72;100.00;97384.41;10383952;28;19933;-74
2022/03/29 22:19:58;;;;;;;;;;;;;;;10.64;100.00;97379.97;10367619;28;19929;-78
2022/03/29 22:24:59;;;;;;;;;;;;;;;10.30;100.00;97368.75;10410770;28;19929;-77
2022/03/29 22:29:59;;;;;;;;;;;;;;;10.04;100.00;97363.03;10393521;28;19936;-76
2022/03/29 22:35:00;;;;;;;;;;;;;;;10.05;100.00;97357.31;10419616;28;20048;-77
2022/03/29 22:40:02;;;;;;;;;;;;;;;10.03;100.00;97356.88;10398269;28;19999;-77
2022/03/29 22:45:05;;;;;;;;;;;;;;;9.96;100.00;97354.00;10431152;28;19982;-76
2022/03/29 22:50:06;;;;;;;;;;;;;;;9.87;100.00;97351.47;10422239;28;20402;-75
2022/03/29 22:55:07;;;;;;;;;;;;;;;9.77;100.00;97349.25;10396105;28;19932;-75
2022/03/29 23:00:08;;;;;;;;;;;;;;;9.76;100.00;97346.94;10411674;28;19928;-76
2022/03/29 23:05:08;;;;;;;;;;;;;;;9.74;100.00;97330.41;10425357;28;19984;-76
2022/03/29 23:10:10;;;;;;;;;;;;;;;9.76;100.00;97328.16;10424642;28;19926;-75
2022/03/29 23:15:13;;;;;;;;;;;;;;;9.66;100.00;97319.50;10413870;28;20383;-76
2022/03/29 23:20:13;;;;;;;;;;;;;;;9.55;100.00;97318.41;10420001;28;19979;-74
2022/03/29 23:25:13;;;;;;;;;;;;;;;9.51;100.00;97303.34;10415073;28;19939;-76
2022/03/29 23:30:14;;;;;;;;;;;;;;;9.49;100.00;97292.19;10439270;28;19940;-76
2022/03/29 23:35:15;;;;;;;;;;;;;;;9.48;100.00;97290.63;10422724;28;19929;-75
2022/03/29 23:40:16;;;;;;;;;;;;;;;9.45;100.00;97296.69;10449215;28;20386;-75
2022/03/29 23:45:16;;;;;;;;;;;;;;;9.39;100.00;97290.78;10433774;28;20286;-76
2022/03/29 23:50:17;;;;;;;;;;;;;;;9.46;100.00;97279.50;10429766;28;19984;-74
2022/03/29 23:55:18;;;;;;;;;;;;;;;9.45;100.00;97281.41;10415438;28;20024;-76
